Time;durP1;ratioP1;P1;durP2;ratioP2;P2;SDS_P1;SDS_P2;PMS_P1;PMS_P2;Temp;Humidity;BMP_temperature;BMP_pressure;BME280_temperature;BME280_humidity;BME280_pressure;Samples;Min_cycle;Max_cycle;Signal;HPM_P1;HPM_P2
2022/05/30 00:00:44;;;;;;;;;;;7.20;99.90;;;;;;5087725;28;19924;-71
2022/05/30 00:03:17;;;;;;;;;;;7.20;99.90;;;;;;5065912;28;19935;-72
2022/05/30 00:05:49;;;;;;;;;;;7.20;99.90;;;;;;5090991;28;19932;-71
2022/05/30 00:08:21;;;;;;;;;;;7.30;99.90;;;;;;5086704;28;20023;-72
2022/05/30 00:10:48;;;;;;;;;;;7.20;99.90;;;;;;5076746;28;19928;-71
2022/05/30 00:13:19;;;;;;;;;;;7.20;99.90;;;;;;5094301;28;19934;-71
2022/05/30 00:15:46;;;;;;;;;;;7.10;99.90;;;;;;5069753;28;20030;-72
2022/05/30 00:18:17;;;;;;;;;;;7.10;99.90;;;;;;5091620;28;19928;-72
2022/05/30 00:20:49;;;;;;;;;;;7.00;99.90;;;;;;5064534;28;19955;-72
2022/05/30 00:23:20;;;;;;;;;;;7.00;99.90;;;;;;5091391;28;19925;-71
2022/05/30 00:25:52;;;;;;;;;;;7.00;99.90;;;;;;5082728;28;19924;-72
2022/05/30 00:28:19;;;;;;;;;;;7.00;99.90;;;;;;5069422;28;19936;-72
2022/05/30 00:30:46;;;;;;;;;;;7.00;99.90;;;;;;5095628;28;19928;-72
2022/05/30 00:33:18;;;;;;;;;;;7.10;99.90;;;;;;5068229;28;19931;-72
2022/05/30 00:35:45;;;;;;;;;;;7.00;99.90;;;;;;5071850;28;19924;-71
2022/05/30 00:38:17;;;;;;;;;;;7.00;99.90;;;;;;5063682;28;20384;-72
2022/05/30 00:40:48;;;;;;;;;;;7.00;99.90;;;;;;5075098;28;20407;-71
2022/05/30 00:43:31;;;;;;;;;;;6.90;99.90;;;;;;5065443;28;20018;-72
2022/05/30 00:45:59;;;;;;;;;;;6.90;99.90;;;;;;5088937;28;19932;-72
2022/05/30 00:48:33;;;;;;;;;;;6.70;99.90;;;;;;5066639;28;19936;-71
2022/05/30 00:51:07;;;;;;;;;;;6.70;99.90;;;;;;5059339;28;19925;-71
2022/05/30 00:53:40;;;;;;;;;;;6.70;99.90;;;;;;5067501;28;19979;-72
2022/05/30 00:56:13;;;;;;;;;;;6.60;99.90;;;;;;5072154;28;19932;-72
2022/05/30 00:58:45;;;;;;;;;;;6.60;99.90;;;;;;5042706;28;20311;-72
2022/05/30 01:01:18;;;;;;;;;;;6.50;99.90;;;;;;5063599;28;19979;-71
2022/05/30 01:06:49;;;;;;;;;;;6.40;99.90;;;;;;5100288;28;19970;-71
2022/05/30 01:09:22;;;;;;;;;;;6.40;99.90;;;;;;5090806;28;20014;-72
2022/05/30 01:11:50;;;;;;;;;;;6.40;99.90;;;;;;5048255;28;20031;-72
2022/05/30 01:14:22;;;;;;;;;;;6.50;99.90;;;;;;5088566;28;20403;-71
2022/05/30 01:16:55;;;;;;;;;;;6.40;99.90;;;;;;5061221;28;20332;-72
2022/05/30 01:19:46;;;;;;;;;;;6.40;99.90;;;;;;5091456;28;19929;-71
2022/05/30 01:22:19;;;;;;;;;;;6.40;99.90;;;;;;5065580;28;19924;-72
2022/05/30 01:24:56;;;;;;;;;;;6.40;99.90;;;;;;5066581;28;19931;-71
2022/05/30 01:27:49;;;;;;;;;;;6.50;99.90;;;;;;5077044;28;19931;-72
2022/05/30 01:30:16;;;;;;;;;;;6.60;99.90;;;;;;5068039;28;19975;-72
2022/05/30 01:32:48;;;;;;;;;;;6.60;99.90;;;;;;5105163;28;19928;-72
2022/05/30 01:35:21;;;;;;;;;;;6.50;99.90;;;;;;5080393;28;19964;-72
2022/05/30 01:37:58;;;;;;;;;;;6.50;99.90;;;;;;5069902;28;19924;-72
2022/05/30 01:40:26;;;;;;;;;;;6.50;99.90;;;;;;5062864;28;19931;-72
2022/05/30 01:42:58;;;;;;;;;;;6.50;99.90;;;;;;5057025;28;19974;-72
2022/05/30 01:45:25;;;;;;;;;;;6.50;99.90;;;;;;5059800;28;19928;-71
2022/05/30 01:47:57;;;;;;;;;;;6.40;99.90;;;;;;5091948;28;19924;-72
2022/05/30 01:50:29;;;;;;;;;;;6.40;99.90;;;;;;5091319;28;20030;-72
2022/05/30 01:53:12;;;;;;;;;;;6.50;99.90;;;;;;5066944;28;19924;-72
2022/05/30 01:56:02;;;;;;;;;;;6.50;99.90;;;;;;5088007;28;20592;-72
2022/05/30 01:58:34;;;;;;;;;;;6.50;99.90;;;;;;5061581;28;19928;-72
2022/05/30 02:01:26;;;;;;;;;;;6.50;99.90;;;;;;5070702;28;19934;-72
2022/05/30 02:04:01;;;;;;;;;;;6.60;99.90;;;;;;5062141;28;20019;-72
2022/05/30 02:06:34;;;;;;;;;;;6.60;99.90;;;;;;5072684;28;19924;-72
2022/05/30 02:09:06;;;;;;;;;;;6.60;99.90;;;;;;5064055;28;19938;-72
2022/05/30 02:11:33;;;;;;;;;;;6.50;99.90;;;;;;5055803;28;20299;-71
2022/05/30 02:14:41;;;;;;;;;;;6.50;99.90;;;;;;4994052;28;20071;-71
2022/05/30 02:17:13;;;;;;;;;;;6.30;99.90;;;;;;5032407;28;19974;-72
2022/05/30 02:19:41;;;;;;;;;;;6.40;99.90;;;;;;5059045;28;19974;-72
2022/05/30 02:22:18;;;;;;;;;;;6.40;99.90;;;;;;5052763;28;19924;-72
2022/05/30 02:24:50;;;;;;;;;;;6.30;99.90;;;;;;5090516;28;19971;-72
2022/05/30 02:27:21;;;;;;;;;;;6.30;99.90;;;;;;5099758;28;20270;-72
2022/05/30 02:29:48;;;;;;;;;;;6.30;99.90;;;;;;5070132;28;19932;-72
2022/05/30 02:32:22;;;;;;;;;;;6.30;99.90;;;;;;5080734;28;19928;-72
2022/05/30 02:37:39;;;;;;;;;;;6.20;99.90;;;;;;5063849;28;19931;-72
2022/05/30 02:40:29;;;;;;;;;;;6.10;99.90;;;;;;5073306;28;20466;-72
2022/05/30 02:43:19;;;;;;;;;;;6.20;99.90;;;;;;5079209;28;20461;-72
2022/05/30 02:45:51;;;;;;;;;;;6.20;99.90;;;;;;5069707;28;20003;-72
2022/05/30 02:48:17;;;;;;;;;;;6.20;99.90;;;;;;5066925;28;19954;-71
2022/05/30 02:50:49;;;;;;;;;;;6.20;99.90;;;;;;5091873;28;20385;-72
2022/05/30 02:53:20;;;;;;;;;;;6.20;99.90;;;;;;5083202;28;19928;-72
2022/05/30 02:56:12;;;;;;;;;;;6.20;99.90;;;;;;5077582;28;19935;-72
2022/05/30 02:58:44;;;;;;;;;;;6.00;99.90;;;;;;5066126;28;19928;-72
2022/05/30 03:01:11;;;;;;;;;;;5.80;99.90;;;;;;5060986;28;19925;-71
2022/05/30 03:03:43;;;;;;;;;;;5.80;99.90;;;;;;5071966;28;19956;-72
2022/05/30 03:06:10;;;;;;;;;;;5.80;99.90;;;;;;5060361;28;19924;-72
2022/05/30 03:08:41;;;;;;;;;;;5.90;99.90;;;;;;5083079;28;19932;-72
2022/05/30 03:11:11;;;;;;;;;;;5.80;99.90;;;;;;5075007;28;19924;-72
2022/05/30 03:13:44;;;;;;;;;;;5.80;99.90;;;;;;5068051;28;19928;-72
2022/05/30 03:16:15;;;;;;;;;;;5.80;99.90;;;;;;5089485;28;19974;-72
2022/05/30 03:18:47;;;;;;;;;;;5.80;99.90;;;;;;5081477;28;19931;-72
2022/05/30 03:21:19;;;;;;;;;;;5.80;99.90;;;;;;5083517;28;19928;-72
2022/05/30 03:23:52;;;;;;;;;;;5.90;99.90;;;;;;5095523;28;19924;-72
2022/05/30 03:26:34;;;;;;;;;;;5.80;99.90;;;;;;5101816;28;19924;-72
2022/05/30 03:29:06;;;;;;;;;;;5.80;99.90;;;;;;5060981;28;19974;-72
2022/05/30 03:31:36;;;;;;;;;;;5.80;99.90;;;;;;5053631;28;19928;-72
2022/05/30 03:34:08;;;;;;;;;;;5.80;99.90;;;;;;5050941;28;19928;-72
2022/05/30 03:36:41;;;;;;;;;;;5.80;99.90;;;;;;5075964;28;19925;-72
2022/05/30 03:39:40;;;;;;;;;;;5.80;99.90;;;;;;5073908;28;19931;-72
2022/05/30 03:42:46;;;;;;;;;;;5.80;99.90;;;;;;5078018;28;19934;-72
2022/05/30 03:45:22;;;;;;;;;;;5.80;99.90;;;;;;5105690;28;19925;-72
2022/05/30 03:47:53;;;;;;;;;;;5.80;99.90;;;;;;5095801;28;19975;-72
2022/05/30 03:50:25;;;;;;;;;;;5.70;99.90;;;;;;5076620;28;20353;-72
2022/05/30 03:53:04;;;;;;;;;;;5.70;99.90;;;;;;5082428;28;20014;-72
2022/05/30 03:55:34;;;;;;;;;;;5.70;99.90;;;;;;5073742;28;20010;-72
2022/05/30 03:58:02;;;;;;;;;;;5.50;99.90;;;;;;5050874;28;19931;-72
2022/05/30 04:00:34;;;;;;;;;;;5.40;99.90;;;;;;5096745;28;20383;-72
2022/05/30 04:03:02;;;;;;;;;;;5.50;99.90;;;;;;5053273;28;19928;-72
2022/05/30 04:05:29;;;;;;;;;;;5.50;99.90;;;;;;5095278;28;20335;-72
2022/05/30 04:08:01;;;;;;;;;;;5.50;99.90;;;;;;5098325;28;19969;-72
2022/05/30 04:10:56;;;;;;;;;;;5.50;99.90;;;;;;5091682;28;19931;-72
2022/05/30 04:14:03;;;;;;;;;;;5.50;99.90;;;;;;5018310;28;19994;-71
2022/05/30 04:17:00;;;;;;;;;;;5.50;99.90;;;;;;5072768;28;20074;-73
2022/05/30 04:19:32;;;;;;;;;;;5.60;99.90;;;;;;5098756;27;19928;-71
2022/05/30 04:22:06;;;;;;;;;;;5.60;99.90;;;;;;5071942;28;20006;-71
2022/05/30 04:25:00;;;;;;;;;;;5.70;99.90;;;;;;5073816;28;20422;-71
2022/05/30 04:27:33;;;;;;;;;;;5.80;99.90;;;;;;5103982;28;19927;-71
2022/05/30 04:30:06;;;;;;;;;;;5.80;99.90;;;;;;5093972;28;19924;-71
2022/05/30 04:32:47;;;;;;;;;;;5.90;99.90;;;;;;5101739;28;20312;-72
2022/05/30 04:35:19;;;;;;;;;;;5.90;99.90;;;;;;5096151;28;19986;-72
2022/05/30 04:37:51;;;;;;;;;;;5.90;99.90;;;;;;5094679;28;19974;-72
2022/05/30 04:40:45;;;;;;;;;;;5.90;99.90;;;;;;5043378;28;19931;-72
2022/05/30 04:43:50;;;;;;;;;;;5.80;99.90;;;;;;5054382;28;20511;-72
2022/05/30 04:46:54;;;;;;;;;;;5.80;99.90;;;;;;5092218;28;20014;-72
2022/05/30 04:49:26;;;;;;;;;;;5.90;99.90;;;;;;5075334;28;20520;-71
2022/05/30 04:51:58;;;;;;;;;;;6.00;99.90;;;;;;5072906;28;19924;-72
2022/05/30 04:54:30;;;;;;;;;;;6.10;99.90;;;;;;5069691;28;19935;-71
2022/05/30 04:57:14;;;;;;;;;;;6.20;99.90;;;;;;5097475;28;20347;-71
2022/05/30 05:00:06;;;;;;;;;;;6.20;99.90;;;;;;5079708;28;19950;-71
2022/05/30 05:02:40;;;;;;;;;;;6.20;99.90;;;;;;5075576;28;19930;-72
2022/05/30 05:05:13;;;;;;;;;;;6.30;99.90;;;;;;5107084;27;19928;-72
2022/05/30 05:08:00;;;;;;;;;;;6.40;99.90;;;;;;5074688;28;19970;-72
2022/05/30 05:10:46;;;;;;;;;;;6.40;99.90;;;;;;5089513;28;20027;-72
2022/05/30 05:13:36;;;;;;;;;;;6.40;99.90;;;;;;5073113;28;19924;-72
2022/05/30 05:16:27;;;;;;;;;;;6.40;99.90;;;;;;5089415;28;19938;-71
2022/05/30 05:19:00;;;;;;;;;;;6.50;99.90;;;;;;5098825;28;19977;-72
2022/05/30 05:21:33;;;;;;;;;;;6.50;99.90;;;;;;5106408;28;19950;-72
2022/05/30 05:24:06;;;;;;;;;;;6.50;99.90;;;;;;5087417;28;20376;-72
2022/05/30 05:26:58;;;;;;;;;;;6.70;99.90;;;;;;5090843;28;20665;-72
2022/05/30 05:29:30;;;;;;;;;;;6.80;99.90;;;;;;5080666;28;19924;-72
2022/05/30 05:32:04;;;;;;;;;;;6.80;99.90;;;;;;5104182;28;19924;-72
2022/05/30 05:34:35;;;;;;;;;;;6.80;99.90;;;;;;5089576;28;19978;-72
2022/05/30 05:37:07;;;;;;;;;;;6.80;99.90;;;;;;5074125;28;19931;-72
2022/05/30 05:40:06;;;;;;;;;;;6.80;99.90;;;;;;5053672;28;19931;-72
2022/05/30 05:42:32;;;;;;;;;;;6.80;99.90;;;;;;5095217;28;19969;-72
2022/05/30 05:45:04;;;;;;;;;;;6.90;99.90;;;;;;5109643;27;19928;-70
2022/05/30 05:47:36;;;;;;;;;;;6.90;99.90;;;;;;5088523;28;19931;-72
2022/05/30 05:50:10;;;;;;;;;;;7.00;99.90;;;;;;5088845;28;20444;-73
2022/05/30 05:52:37;;;;;;;;;;;7.00;99.90;;;;;;5081374;28;19928;-71
2022/05/30 05:55:16;;;;;;;;;;;7.10;99.90;;;;;;5071620;28;19932;-72
2022/05/30 05:57:48;;;;;;;;;;;7.20;99.90;;;;;;5076027;28;20024;-72
2022/05/30 06:00:20;;;;;;;;;;;7.20;99.90;;;;;;5088929;28;19924;-71
2022/05/30 06:02:52;;;;;;;;;;;7.30;99.90;;;;;;5105223;28;20517;-71
2022/05/30 06:05:43;;;;;;;;;;;7.30;99.90;;;;;;5069781;28;19932;-72
2022/05/30 06:08:40;;;;;;;;;;;7.40;99.90;;;;;;5068290;28;20037;-72
2022/05/30 06:11:19;;;;;;;;;;;7.40;99.90;;;;;;5108731;27;19994;-72
2022/05/30 06:13:57;;;;;;;;;;;7.40;99.90;;;;;;5094764;28;19925;-71
2022/05/30 06:16:25;;;;;;;;;;;7.60;99.90;;;;;;5059381;28;19923;-72
2022/05/30 06:18:59;;;;;;;;;;;7.70;99.90;;;;;;5077129;28;19924;-72
2022/05/30 06:21:26;;;;;;;;;;;7.80;99.90;;;;;;5074266;28;19924;-72
2022/05/30 06:23:59;;;;;;;;;;;7.90;99.90;;;;;;5105569;28;19924;-71
2022/05/30 06:26:44;;;;;;;;;;;8.00;99.90;;;;;;5088318;28;20291;-71
2022/05/30 06:29:30;;;;;;;;;;;8.10;99.90;;;;;;5088082;28;19997;-71
2022/05/30 06:32:03;;;;;;;;;;;8.30;99.90;;;;;;5072546;28;19969;-72
2022/05/30 06:34:55;;;;;;;;;;;8.40;99.90;;;;;;5087984;28;19985;-72
2022/05/30 06:37:27;;;;;;;;;;;8.60;99.90;;;;;;5090274;28;19947;-73
2022/05/30 06:40:00;;;;;;;;;;;8.60;99.90;;;;;;5075899;28;19943;-72
2022/05/30 06:42:38;;;;;;;;;;;8.60;99.90;;;;;;5074613;28;20304;-72
2022/05/30 06:45:29;;;;;;;;;;;8.60;99.90;;;;;;5073680;28;19932;-72
2022/05/30 06:48:19;;;;;;;;;;;8.60;99.90;;;;;;5095817;28;19931;-72
2022/05/30 06:50:51;;;;;;;;;;;8.60;99.90;;;;;;5071717;28;19928;-72
2022/05/30 06:53:22;;;;;;;;;;;8.50;99.90;;;;;;5057628;28;19956;-72
2022/05/30 06:55:56;;;;;;;;;;;8.50;99.90;;;;;;5072120;28;19959;-71
2022/05/30 06:58:33;;;;;;;;;;;8.50;99.90;;;;;;5090124;28;20011;-72
2022/05/30 07:01:04;;;;;;;;;;;8.50;99.90;;;;;;5072214;28;19925;-71
2022/05/30 07:03:34;;;;;;;;;;;8.50;99.90;;;;;;5085277;28;19925;-71
2022/05/30 07:06:45;;;;;;;;;;;8.50;99.90;;;;;;4969253;28;19933;-71
2022/05/30 07:09:23;;;;;;;;;;;8.50;99.90;;;;;;4984639;28;19926;-72
2022/05/30 07:12:09;;;;;;;;;;;8.50;99.90;;;;;;5039718;28;20433;-72
2022/05/30 07:14:44;;;;;;;;;;;8.60;99.90;;;;;;5073634;28;19924;-71
2022/05/30 07:17:16;;;;;;;;;;;8.70;99.90;;;;;;5071332;28;20388;-72
2022/05/30 07:19:48;;;;;;;;;;;8.80;99.90;;;;;;5055841;28;20019;-71
2022/05/30 07:22:18;;;;;;;;;;;8.90;99.90;;;;;;5044330;28;19947;-72
2022/05/30 07:25:28;;;;;;;;;;;9.00;99.90;;;;;;5067818;28;20166;-71
2022/05/30 07:28:13;;;;;;;;;;;9.20;99.90;;;;;;5069124;28;19958;-72
2022/05/30 07:31:16;;;;;;;;;;;9.30;99.90;;;;;;5053149;28;19932;-71
2022/05/30 07:34:01;;;;;;;;;;;9.30;99.90;;;;;;5072997;28;19931;-71
2022/05/30 07:36:51;;;;;;;;;;;9.40;99.90;;;;;;5048743;28;19994;-71
2022/05/30 07:39:30;;;;;;;;;;;9.50;99.90;;;;;;5071187;28;20276;-72
2022/05/30 07:42:20;;;;;;;;;;;9.70;99.90;;;;;;5084594;28;20468;-71
2022/05/30 07:45:14;;;;;;;;;;;10.00;99.90;;;;;;5102915;28;19931;-72
2022/05/30 07:47:56;;;;;;;;;;;10.20;99.90;;;;;;5077214;28;19928;-72
2022/05/30 07:50:57;;;;;;;;;;;10.30;99.90;;;;;;5090766;28;19925;-72
2022/05/30 07:53:42;;;;;;;;;;;10.50;99.90;;;;;;5067510;28;19931;-72
2022/05/30 07:56:40;;;;;;;;;;;10.80;99.90;;;;;;5056017;28;19932;-72
2022/05/30 07:59:07;;;;;;;;;;;11.00;99.90;;;;;;5091046;28;20547;-72
2022/05/30 08:01:39;;;;;;;;;;;11.30;99.90;;;;;;5097054;28;20030;-72
2022/05/30 08:04:13;;;;;;;;;;;11.50;99.90;;;;;;5076245;28;19923;-72
2022/05/30 08:06:45;;;;;;;;;;;11.60;99.90;;;;;;5095841;28;20273;-72
2022/05/30 08:09:35;;;;;;;;;;;11.70;99.90;;;;;;5069618;28;20416;-72
2022/05/30 08:12:10;;;;;;;;;;;11.90;99.90;;;;;;5065058;28;19930;-71
2022/05/30 08:14:53;;;;;;;;;;;11.90;99.90;;;;;;5096442;28;20392;-72
2022/05/30 08:17:52;;;;;;;;;;;12.10;99.90;;;;;;5089505;28;20023;-73
2022/05/30 08:20:25;;;;;;;;;;;12.20;99.90;;;;;;5066539;28;20297;-72
2022/05/30 08:22:57;;;;;;;;;;;12.20;99.90;;;;;;5067690;28;19947;-72
2022/05/30 08:25:24;;;;;;;;;;;12.20;99.90;;;;;;5093348;28;19973;-72
2022/05/30 08:27:51;;;;;;;;;;;12.20;99.90;;;;;;5062324;28;19935;-72
2022/05/30 08:30:23;;;;;;;;;;;12.20;99.90;;;;;;5071618;28;19936;-73
2022/05/30 08:33:30;;;;;;;;;;;12.20;99.90;;;;;;5038350;28;20030;-71
2022/05/30 08:36:14;;;;;;;;;;;12.20;99.90;;;;;;5075496;28;19947;-72
2022/05/30 08:38:47;;;;;;;;;;;12.30;99.90;;;;;;5089426;28;20406;-72
2022/05/30 08:44:34;;;;;;;;;;;12.80;99.90;;;;;;5071636;28;19931;-72
2022/05/30 08:47:13;;;;;;;;;;;12.90;99.90;;;;;;5090628;28;19924;-71
2022/05/30 08:49:50;;;;;;;;;;;13.10;99.90;;;;;;5108653;28;20368;-72
2022/05/30 08:52:34;;;;;;;;;;;13.30;99.90;;;;;;5071509;28;20427;-72
2022/05/30 08:55:14;;;;;;;;;;;13.50;99.90;;;;;;5092769;28;19928;-72
2022/05/30 08:57:56;;;;;;;;;;;13.70;99.90;;;;;;5074105;28;19959;-71
2022/05/30 09:00:31;;;;;;;;;;;13.80;99.90;;;;;;5076830;28;19955;-72
2022/05/30 09:03:28;;;;;;;;;;;13.90;99.90;;;;;;5092134;28;20278;-72
2022/05/30 09:06:09;;;;;;;;;;;14.10;99.90;;;;;;5074441;28;19985;-72
2022/05/30 09:08:53;;;;;;;;;;;14.10;99.90;;;;;;5072650;28;20469;-72
2022/05/30 09:11:57;;;;;;;;;;;14.10;99.90;;;;;;5089733;28;19930;-72
2022/05/30 09:14:50;;;;;;;;;;;14.20;99.90;;;;;;5056800;28;20316;-72
2022/05/30 09:17:26;;;;;;;;;;;14.20;99.90;;;;;;5077070;28;20445;-71
2022/05/30 09:19:53;;;;;;;;;;;14.20;99.90;;;;;;5058875;28;20046;-72
2022/05/30 09:22:25;;;;;;;;;;;14.10;99.90;;;;;;5075196;28;20304;-72
2022/05/30 09:28:00;;;;;;;;;;;14.20;99.90;;;;;;5071579;28;19973;-72
2022/05/30 09:31:00;;;;;;;;;;;14.20;99.90;;;;;;5088038;28;20419;-72
2022/05/30 09:33:55;;;;;;;;;;;14.50;99.90;;;;;;5086870;28;19942;-72
2022/05/30 09:36:52;;;;;;;;;;;14.70;99.90;;;;;;5088206;28;19936;-72
2022/05/30 09:39:42;;;;;;;;;;;14.90;99.90;;;;;;5100949;28;19928;-71
2022/05/30 09:42:21;;;;;;;;;;;15.00;99.90;;;;;;5054528;28;20499;-72
2022/05/30 09:44:55;;;;;;;;;;;15.10;99.90;;;;;;5079469;28;20014;-71
2022/05/30 09:47:58;;;;;;;;;;;15.30;99.90;;;;;;5058341;28;19931;-72
2022/05/30 09:50:44;;;;;;;;;;;15.30;99.90;;;;;;5057577;28;19964;-72
2022/05/30 09:53:36;;;;;;;;;;;15.30;99.90;;;;;;5054456;28;20293;-72
2022/05/30 09:56:09;;;;;;;;;;;15.40;99.90;;;;;;5072712;28;20012;-72
2022/05/30 09:58:49;;;;;;;;;;;15.40;99.90;;;;;;5073696;28;20549;-72
2022/05/30 10:01:34;;;;;;;;;;;15.60;99.90;;;;;;5063878;28;19935;-72
2022/05/30 10:04:32;;;;;;;;;;;15.70;99.90;;;;;;5082939;28;19928;-72
2022/05/30 10:07:15;;;;;;;;;;;15.80;99.90;;;;;;5079846;28;19938;-71
2022/05/30 10:09:55;;;;;;;;;;;15.90;99.90;;;;;;5080542;28;20390;-71
2022/05/30 10:12:37;;;;;;;;;;;16.00;99.90;;;;;;5097947;28;19928;-73
2022/05/30 10:15:19;;;;;;;;;;;16.00;99.90;;;;;;5086781;28;19936;-71
2022/05/30 10:17:47;;;;;;;;;;;16.00;99.90;;;;;;5074431;28;20328;-72
2022/05/30 10:20:45;;;;;;;;;;;15.90;99.90;;;;;;5072102;28;19959;-72
2022/05/30 10:30:41;;;;;;;;;;;16.10;99.90;;;;;;5080680;28;19951;-72
2022/05/30 10:33:53;;;;;;;;;;;16.20;99.90;;;;;;5059409;28;19929;-71
2022/05/30 10:36:28;;;;;;;;;;;16.40;99.70;;;;;;5072547;28;19934;-72
2022/05/30 10:39:11;;;;;;;;;;;16.60;99.60;;;;;;5073127;28;19928;-72
2022/05/30 10:41:47;;;;;;;;;;;16.80;99.90;;;;;;5051229;28;20381;-72
2022/05/30 10:44:21;;;;;;;;;;;16.90;98.10;;;;;;5089483;28;20023;-72
2022/05/30 10:47:00;;;;;;;;;;;16.90;95.40;;;;;;5068823;28;19989;-72
2022/05/30 10:49:43;;;;;;;;;;;16.90;98.10;;;;;;5088091;28;19959;-72
2022/05/30 10:52:27;;;;;;;;;;;16.70;96.50;;;;;;5070999;28;19931;-72
2022/05/30 10:55:30;;;;;;;;;;;16.60;97.30;;;;;;5074217;28;20377;-73
2022/05/30 10:58:10;;;;;;;;;;;16.70;97.10;;;;;;5070011;28;20042;-72
2022/05/30 11:00:51;;;;;;;;;;;16.90;97.70;;;;;;5100511;27;19969;-72
2022/05/30 11:03:43;;;;;;;;;;;17.10;98.00;;;;;;5087241;28;19955;-73
2022/05/30 11:06:31;;;;;;;;;;;17.40;94.50;;;;;;5075159;28;19935;-72
2022/05/30 11:09:07;;;;;;;;;;;17.60;96.50;;;;;;5054333;28;19932;-72
2022/05/30 11:11:37;;;;;;;;;;;17.40;91.30;;;;;;5087013;28;19935;-73
2022/05/30 11:14:20;;;;;;;;;;;17.20;92.30;;;;;;5072559;28;20300;-72
2022/05/30 11:16:56;;;;;;;;;;;17.20;92.00;;;;;;5080987;28;19928;-72
2022/05/30 11:19:39;;;;;;;;;;;17.30;90.90;;;;;;5085871;28;20026;-73
2022/05/30 11:22:46;;;;;;;;;;;17.00;91.50;;;;;;5094374;28;19935;-72
2022/05/30 11:25:21;;;;;;;;;;;16.80;90.80;;;;;;5077850;28;19982;-72
2022/05/30 11:28:06;;;;;;;;;;;16.50;91.40;;;;;;5070683;28;20315;-72
2022/05/30 11:30:50;;;;;;;;;;;16.30;91.10;;;;;;5078504;28;19924;-71
2022/05/30 11:33:25;;;;;;;;;;;16.30;92.80;;;;;;5078456;28;19928;-72
2022/05/30 11:36:02;;;;;;;;;;;16.50;90.00;;;;;;5101090;28;20384;-72
2022/05/30 11:38:41;;;;;;;;;;;16.70;92.30;;;;;;5080283;28;19928;-72
2022/05/30 11:41:32;;;;;;;;;;;16.90;92.40;;;;;;5072635;28;19925;-72
2022/05/30 11:44:30;;;;;;;;;;;17.00;92.10;;;;;;5075894;28;19944;-72
2022/05/30 11:47:08;;;;;;;;;;;17.20;92.20;;;;;;5062789;28;19924;-73
2022/05/30 11:49:45;;;;;;;;;;;17.30;91.60;;;;;;5061854;28;19929;-72
2022/05/30 11:52:29;;;;;;;;;;;17.40;90.90;;;;;;5083138;28;19931;-72
2022/05/30 11:55:14;;;;;;;;;;;17.60;92.20;;;;;;5079109;28;19928;-72
2022/05/30 11:57:47;;;;;;;;;;;17.90;91.10;;;;;;5103196;28;20288;-72
2022/05/30 12:00:38;;;;;;;;;;;18.00;91.70;;;;;;5075313;28;19924;-72
2022/05/30 12:03:29;;;;;;;;;;;18.10;87.10;;;;;;5076398;28;19938;-72
2022/05/30 12:06:19;;;;;;;;;;;18.00;87.10;;;;;;5090434;28;19924;-73
2022/05/30 12:08:54;;;;;;;;;;;17.80;83.40;;;;;;5076970;28;20388;-72
2022/05/30 12:11:41;;;;;;;;;;;17.50;86.60;;;;;;5072253;28;19924;-73
2022/05/30 12:14:17;;;;;;;;;;;17.30;87.30;;;;;;5075543;28;20014;-71
2022/05/30 12:16:49;;;;;;;;;;;17.10;90.10;;;;;;5074096;28;19930;-71
2022/05/30 12:25:29;;;;;;;;;;;18.00;86.80;;;;;;5091272;28;19935;-72
2022/05/30 12:27:56;;;;;;;;;;;18.20;80.70;;;;;;5093226;28;19924;-72
2022/05/30 12:30:33;;;;;;;;;;;18.60;83.60;;;;;;5071797;28;19979;-72
2022/05/30 12:33:01;;;;;;;;;;;18.60;78.50;;;;;;5076373;28;19927;-72
2022/05/30 12:35:29;;;;;;;;;;;18.80;80.10;;;;;;5107327;27;19924;-72
2022/05/30 12:38:10;;;;;;;;;;;19.00;78.90;;;;;;5075469;28;19938;-72
2022/05/30 12:40:54;;;;;;;;;;;18.70;78.20;;;;;;5061894;28;19928;-72
2022/05/30 12:43:29;;;;;;;;;;;18.40;79.90;;;;;;5074924;28;19935;-72
2022/05/30 12:46:01;;;;;;;;;;;18.20;78.10;;;;;;5078823;28;19935;-72
2022/05/30 12:48:35;;;;;;;;;;;18.30;81.50;;;;;;5073280;28;19924;-72
2022/05/30 12:51:06;;;;;;;;;;;18.10;78.50;;;;;;5102538;28;20431;-71
2022/05/30 12:54:07;;;;;;;;;;;17.60;78.00;;;;;;5092607;28;19931;-72
2022/05/30 12:56:39;;;;;;;;;;;17.30;77.80;;;;;;5071219;28;19935;-72
2022/05/30 12:59:06;;;;;;;;;;;17.00;78.40;;;;;;5095484;28;19930;-72
2022/05/30 13:01:45;;;;;;;;;;;17.20;80.90;;;;;;5074331;28;20354;-72
2022/05/30 13:04:18;;;;;;;;;;;17.40;80.10;;;;;;5089388;28;20332;-72
2022/05/30 13:07:01;;;;;;;;;;;17.40;82.30;;;;;;5073623;28;19932;-72
2022/05/30 13:09:33;;;;;;;;;;;17.30;82.50;;;;;;5075049;28;19934;-72
2022/05/30 13:12:17;;;;;;;;;;;17.50;82.50;;;;;;5074248;28;19932;-72
2022/05/30 13:14:53;;;;;;;;;;;18.00;81.40;;;;;;5104458;28;19924;-72
2022/05/30 13:17:20;;;;;;;;;;;18.20;77.50;;;;;;5088677;28;20015;-73
2022/05/30 13:19:57;;;;;;;;;;;18.50;75.90;;;;;;5060447;28;19939;-72
2022/05/30 13:22:38;;;;;;;;;;;18.90;79.90;;;;;;5093123;28;19932;-72
2022/05/30 13:25:11;;;;;;;;;;;19.20;77.10;;;;;;5092657;28;19928;-73
2022/05/30 13:27:45;;;;;;;;;;;18.80;73.10;;;;;;5093741;28;19948;-71
2022/05/30 13:30:24;;;;;;;;;;;18.60;74.10;;;;;;5076305;28;20397;-72
2022/05/30 13:32:56;;;;;;;;;;;18.50;77.80;;;;;;5091133;28;20415;-72
2022/05/30 13:35:30;;;;;;;;;;;18.50;79.10;;;;;;5075118;28;19924;-71
2022/05/30 13:38:00;;;;;;;;;;;18.40;80.40;;;;;;5075277;28;20346;-71
2022/05/30 13:40:33;;;;;;;;;;;18.60;79.80;;;;;;5094388;28;19928;-72
2022/05/30 13:43:04;;;;;;;;;;;18.90;78.70;;;;;;5106837;28;19932;-72
2022/05/30 13:45:39;;;;;;;;;;;19.00;73.40;;;;;;5092869;28;19930;-72
2022/05/30 13:48:05;;;;;;;;;;;19.10;73.70;;;;;;5091268;28;19924;-72
2022/05/30 13:50:43;;;;;;;;;;;19.20;75.30;;;;;;5057082;28;19924;-72
2022/05/30 13:53:10;;;;;;;;;;;19.20;72.20;;;;;;5070164;28;19928;-71
2022/05/30 13:56:08;;;;;;;;;;;18.90;70.60;;;;;;5085954;28;19924;-72
2022/05/30 13:58:36;;;;;;;;;;;19.00;72.80;;;;;;5089187;28;19924;-71
2022/05/30 14:01:11;;;;;;;;;;;19.30;72.30;;;;;;5098325;27;19924;-72
2022/05/30 14:04:06;;;;;;;;;;;19.60;70.30;;;;;;5092797;28;19924;-72
2022/05/30 14:06:40;;;;;;;;;;;19.90;71.20;;;;;;5072416;28;20023;-73
2022/05/30 14:09:13;;;;;;;;;;;20.20;68.50;;;;;;5085895;28;19937;-72
2022/05/30 14:11:47;;;;;;;;;;;20.10;71.60;;;;;;5065026;28;19928;-73
2022/05/30 14:14:38;;;;;;;;;;;20.20;68.50;;;;;;5072466;28;19930;-72
2022/05/30 14:17:10;;;;;;;;;;;20.00;69.90;;;;;;5108661;27;20007;-72
2022/05/30 14:19:38;;;;;;;;;;;20.00;70.00;;;;;;5098859;28;19924;-72
2022/05/30 14:22:15;;;;;;;;;;;20.10;68.10;;;;;;5070281;28;19951;-72
2022/05/30 14:24:58;;;;;;;;;;;19.80;68.40;;;;;;5078623;28;19936;-72
2022/05/30 14:27:32;;;;;;;;;;;19.80;67.80;;;;;;5088657;28;19955;-72
2022/05/30 14:30:07;;;;;;;;;;;20.00;68.50;;;;;;5070979;28;19931;-72
2022/05/30 14:32:39;;;;;;;;;;;20.30;67.80;;;;;;5077260;28;19931;-72
2022/05/30 14:35:22;;;;;;;;;;;20.50;67.40;;;;;;5085863;28;20011;-72
2022/05/30 14:37:51;;;;;;;;;;;20.50;67.90;;;;;;5072630;28;19948;-73
2022/05/30 14:40:26;;;;;;;;;;;20.00;67.10;;;;;;5083069;28;20411;-72
2022/05/30 14:42:59;;;;;;;;;;;19.70;68.10;;;;;;5065291;28;19924;-72
2022/05/30 14:45:42;;;;;;;;;;;19.50;68.50;;;;;;5070540;28;20026;-72
2022/05/30 14:48:24;;;;;;;;;;;19.20;69.50;;;;;;5078350;28;19928;-72
2022/05/30 14:51:01;;;;;;;;;;;18.80;70.00;;;;;;5060887;28;19935;-73
2022/05/30 14:53:37;;;;;;;;;;;18.80;70.30;;;;;;5087353;28;19932;-73
2022/05/30 14:56:10;;;;;;;;;;;18.70;72.30;;;;;;5073083;28;20385;-72
2022/05/30 14:58:45;;;;;;;;;;;18.60;72.40;;;;;;5098737;28;19951;-71
2022/05/30 15:01:21;;;;;;;;;;;18.50;70.70;;;;;;5056807;28;20342;-72
2022/05/30 15:04:12;;;;;;;;;;;19.00;71.20;;;;;;5081586;28;19929;-71
2022/05/30 15:06:45;;;;;;;;;;;19.00;68.50;;;;;;5085698;28;19924;-72
2022/05/30 15:09:17;;;;;;;;;;;19.40;67.90;;;;;;5049876;28;20389;-72
2022/05/30 15:11:49;;;;;;;;;;;19.90;69.00;;;;;;5105632;28;20419;-73
2022/05/30 15:14:22;;;;;;;;;;;20.30;66.30;;;;;;5091869;28;19924;-72
2022/05/30 15:16:54;;;;;;;;;;;20.70;67.10;;;;;;5082543;28;19924;-73
2022/05/30 15:19:26;;;;;;;;;;;21.00;62.00;;;;;;5086677;28;20381;-72
2022/05/30 15:21:59;;;;;;;;;;;21.30;62.30;;;;;;5097381;28;19946;-74
2022/05/30 15:24:36;;;;;;;;;;;21.30;61.80;;;;;;5074406;28;19924;-72
2022/05/30 15:27:08;;;;;;;;;;;21.50;61.70;;;;;;5104287;28;19993;-72
2022/05/30 15:29:39;;;;;;;;;;;21.20;61.40;;;;;;5092804;28;19947;-72
2022/05/30 15:32:07;;;;;;;;;;;20.90;62.60;;;;;;5101788;28;19931;-72
2022/05/30 15:34:38;;;;;;;;;;;20.70;63.00;;;;;;5107737;28;20412;-72
2022/05/30 15:37:13;;;;;;;;;;;20.90;65.20;;;;;;5071167;28;19974;-72
2022/05/30 15:39:46;;;;;;;;;;;21.20;63.20;;;;;;5067134;28;19924;-72
2022/05/30 15:42:20;;;;;;;;;;;21.40;60.90;;;;;;5085760;28;19924;-73
2022/05/30 15:44:53;;;;;;;;;;;21.60;60.80;;;;;;5094708;28;20009;-73
2022/05/30 15:47:20;;;;;;;;;;;22.00;59.40;;;;;;5092757;28;19935;-73
2022/05/30 15:49:52;;;;;;;;;;;22.20;61.10;;;;;;5080303;28;20435;-80
2022/05/30 15:52:23;;;;;;;;;;;22.60;59.20;;;;;;5075211;28;19924;-71